Stromoygutt — LM9153 — position and weather

sailwx.info

Track history (hours):
 
Tides and Currents Weather Stations Pressure Air Temp Water Temp Dewpoint Dewpoint Depression Visibility Wind Speed Wind Dir Waves Ship Positions

Stromoygutt

Last reported at 2018-May-29 03:59 UTC. Time now 2018-Jun-18 09:32 UTC.
Position N 66°57' E 013°29'.
Warning: this ship's position is 20 days out of date.

Length 15 m; draft 2.5 m.

Type: Fishing. MMSI: 257101740.

Date/timePositionNaut miles runAvg speedWind from/ knotsBaromVisibWave heightAir tempDewpointWater temp
2018-May-29 03:59N 66°57' E 013°29'4 7.4
2018-May-29 03:30N 66°59' E 013°36'4 7.8
2018-May-29 02:58N 67°01' E 013°45'4 7.8
2018-May-29 02:30N 67°03' E 013°52'4 7.8
2018-May-29 02:00N 67°07' E 013°59'4 7.8
2018-May-29 01:29N 67°10' E 014°03'4 7.9
2018-May-29 01:00N 67°14' E 014°06'4 8.1
2018-May-29 00:30N 67°18' E 014°07'4 8.3
2018-May-28 23:59N 67°22' E 014°03'  
2018-May-21 07:32N 69°06' E 017°26'0 8.8
2018-May-21 07:30N 69°06' E 017°27'4 8.4
2018-May-21 07:01N 69°07' E 017°38'4 8.5
2018-May-21 06:30N 69°09' E 017°49'25 7.1
2018-May-21 02:56N 69°31' E 018°26'3 8.1
2018-May-21 02:30N 69°32' E 018°35'3 6.6
2018-May-21 02:00N 69°33' E 018°44'3 7.1
2018-May-21 01:30N 69°36' E 018°52'4 7.9
2018-May-21 01:00N 69°39' E 018°58'4 7.6
2018-May-21 00:31N 69°42' E 019°03'4 8.0
2018-May-20 23:59N 69°46' E 019°09'4 7.5
2018-May-20 23:29N 69°47' E 019°19'  
Track history (hours):
 
Tides and Currents Weather Stations Pressure Air Temp Water Temp Dewpoint Dewpoint Depression Visibility Wind Speed Wind Dir Waves Ship Positions

Stromoygutt

Last reported at 2018-May-29 03:59 UTC. Time now 2018-Jun-18 09:32 UTC.
Position N 66°57' E 013°29'.
Warning: this ship's position is 20 days out of date.

Length 15 m; draft 2.5 m.

Type: Fishing. MMSI: 257101740.

Date/timePositionNaut miles runAvg speedWind from/ knotsBaromVisibWave heightAir tempDewpointWater temp
2018-May-29 03:59N 66°57' E 013°29'4 7.4
2018-May-29 03:30N 66°59' E 013°36'4 7.8
2018-May-29 02:58N 67°01' E 013°45'4 7.8
2018-May-29 02:30N 67°03' E 013°52'4 7.8
2018-May-29 02:00N 67°07' E 013°59'4 7.8
2018-May-29 01:29N 67°10' E 014°03'4 7.9
2018-May-29 01:00N 67°14' E 014°06'4 8.1
2018-May-29 00:30N 67°18' E 014°07'4 8.3
2018-May-28 23:59N 67°22' E 014°03'  
2018-May-21 07:32N 69°06' E 017°26'0 8.8
2018-May-21 07:30N 69°06' E 017°27'4 8.4
2018-May-21 07:01N 69°07' E 017°38'4 8.5
2018-May-21 06:30N 69°09' E 017°49'25 7.1
2018-May-21 02:56N 69°31' E 018°26'3 8.1
2018-May-21 02:30N 69°32' E 018°35'3 6.6
2018-May-21 02:00N 69°33' E 018°44'3 7.1
2018-May-21 01:30N 69°36' E 018°52'4 7.9
2018-May-21 01:00N 69°39' E 018°58'4 7.6
2018-May-21 00:31N 69°42' E 019°03'4 8.0
2018-May-20 23:59N 69°46' E 019°09'4 7.5
2018-May-20 23:29N 69°47' E 019°19'  

Dump ship's entire track history